sensor_id;sensor_type;location;lat;lon;timestamp;pressure;altitude;pressure_sealevel;temperature;humidity
68656;BME280;55638;51.122;13.606;2024-01-16T00:00:09;98775.66;;;-0.37;61.86
68656;BME280;55638;51.122;13.606;2024-01-16T00:01:44;98776.50;;;-0.36;62.00
68656;BME280;55638;51.122;13.606;2024-01-16T00:03:16;98776.63;;;-0.38;62.04
68656;BME280;55638;51.122;13.606;2024-01-16T00:04:47;98780.13;;;-0.37;61.87
68656;BME280;55638;51.122;13.606;2024-01-16T00:06:19;98778.31;;;-0.37;62.02
68656;BME280;55638;51.122;13.606;2024-01-16T00:07:51;98775.78;;;-0.38;61.92
68656;BME280;55638;51.122;13.606;2024-01-16T00:09:23;98780.13;;;-0.37;61.99
68656;BME280;55638;51.122;13.606;2024-01-16T00:10:55;98775.66;;;-0.37;61.96
68656;BME280;55638;51.122;13.606;2024-01-16T00:12:27;98778.31;;;-0.37;62.00
68656;BME280;55638;51.122;13.606;2024-01-16T00:13:59;98778.31;;;-0.37;61.87
68656;BME280;55638;51.122;13.606;2024-01-16T00:15:31;98773.88;;;-0.36;61.97
68656;BME280;55638;51.122;13.606;2024-01-16T00:17:03;98781.91;;;-0.38;61.89
68656;BME280;55638;51.122;13.606;2024-01-16T00:18:35;98790.69;;;-0.37;61.97
68656;BME280;55638;51.122;13.606;2024-01-16T00:20:07;98791.53;;;-0.37;61.91
68656;BME280;55638;51.122;13.606;2024-01-16T00:21:41;98804.72;;;-0.35;62.04
68656;BME280;55638;51.122;13.606;2024-01-16T00:23:13;98801.09;;;-0.34;61.91
68656;BME280;55638;51.122;13.606;2024-01-16T00:24:45;98789.66;;;-0.35;61.98
68656;BME280;55638;51.122;13.606;2024-01-16T00:26:21;98792.22;;;-0.33;61.89
68656;BME280;55638;51.122;13.606;2024-01-16T00:27:54;98798.47;;;-0.34;61.91
68656;BME280;55638;51.122;13.606;2024-01-16T00:29:26;98796.84;;;-0.37;62.02
68656;BME280;55638;51.122;13.606;2024-01-16T00:30:58;98799.50;;;-0.37;61.94
68656;BME280;55638;51.122;13.606;2024-01-16T00:32:30;98792.50;;;-0.38;62.03
68656;BME280;55638;51.122;13.606;2024-01-16T00:34:02;98799.69;;;-0.40;62.01
68656;BME280;55638;51.122;13.606;2024-01-16T00:35:35;98799.59;;;-0.38;62.09
68656;BME280;55638;51.122;13.606;2024-01-16T00:37:07;98798.72;;;-0.39;62.02
68656;BME280;55638;51.122;13.606;2024-01-16T00:38:39;98806.66;;;-0.39;62.17
68656;BME280;55638;51.122;13.606;2024-01-16T00:40:11;98804.00;;;-0.39;62.11
68656;BME280;55638;51.122;13.606;2024-01-16T00:41:43;98811.13;;;-0.39;62.15
68656;BME280;55638;51.122;13.606;2024-01-16T00:43:15;98812.91;;;-0.40;62.17
68656;BME280;55638;51.122;13.606;2024-01-16T00:44:46;98806.78;;;-0.40;62.41
68656;BME280;55638;51.122;13.606;2024-01-16T00:46:18;98813.75;;;-0.39;62.24
68656;BME280;55638;51.122;13.606;2024-01-16T00:47:50;98827.09;;;-0.41;62.36
68656;BME280;55638;51.122;13.606;2024-01-16T00:49:22;98816.41;;;-0.39;62.14
68656;BME280;55638;51.122;13.606;2024-01-16T00:50:54;98828.72;;;-0.38;62.17
68656;BME280;55638;51.122;13.606;2024-01-16T00:52:26;98821.69;;;-0.39;62.26
68656;BME280;55638;51.122;13.606;2024-01-16T00:53:58;98825.13;;;-0.37;62.25
68656;BME280;55638;51.122;13.606;2024-01-16T00:55:30;98824.28;;;-0.38;62.25
68656;BME280;55638;51.122;13.606;2024-01-16T00:57:02;98821.50;;;-0.36;62.01
68656;BME280;55638;51.122;13.606;2024-01-16T00:58:34;98825.13;;;-0.37;62.27
68656;BME280;55638;51.122;13.606;2024-01-16T01:00:06;98829.47;;;-0.36;62.11
68656;BME280;55638;51.122;13.606;2024-01-16T01:01:39;98830.31;;;-0.36;62.21
68656;BME280;55638;51.122;13.606;2024-01-16T01:03:11;98824.09;;;-0.35;62.00
68656;BME280;55638;51.122;13.606;2024-01-16T01:04:43;98822.38;;;-0.36;62.13
68656;BME280;55638;51.122;13.606;2024-01-16T01:06:15;98817.06;;;-0.36;62.22
68656;BME280;55638;51.122;13.606;2024-01-16T01:07:47;98831.25;;;-0.37;62.09
68656;BME280;55638;51.122;13.606;2024-01-16T01:09:19;98832.09;;;-0.36;61.98
68656;BME280;55638;51.122;13.606;2024-01-16T01:10:51;98831.19;;;-0.35;62.08
68656;BME280;55638;51.122;13.606;2024-01-16T01:12:23;98831.94;;;-0.33;62.11
68656;BME280;55638;51.122;13.606;2024-01-16T01:13:55;98837.22;;;-0.33;62.28
68656;BME280;55638;51.122;13.606;2024-01-16T01:15:27;98840.63;;;-0.31;62.32
68656;BME280;55638;51.122;13.606;2024-01-16T01:16:59;98839.78;;;-0.32;62.25
68656;BME280;55638;51.122;13.606;2024-01-16T01:18:31;98847.72;;;-0.32;62.15
68656;BME280;55638;51.122;13.606;2024-01-16T01:20:03;98845.09;;;-0.32;62.42
68656;BME280;55638;51.122;13.606;2024-01-16T01:21:35;98847.72;;;-0.32;62.33
68656;BME280;55638;51.122;13.606;2024-01-16T01:23:07;98843.28;;;-0.31;62.31
68656;BME280;55638;51.122;13.606;2024-01-16T01:24:40;98844.03;;;-0.29;62.22
68656;BME280;55638;51.122;13.606;2024-01-16T01:26:11;98842.25;;;-0.28;62.25
68656;BME280;55638;51.122;13.606;2024-01-16T01:27:45;98850.19;;;-0.28;62.21
68656;BME280;55638;51.122;13.606;2024-01-16T01:29:17;98858.03;;;-0.27;62.10
68656;BME280;55638;51.122;13.606;2024-01-16T01:30:49;98856.25;;;-0.26;62.01
68656;BME280;55638;51.122;13.606;2024-01-16T01:32:21;98853.59;;;-0.26;62.17
68656;BME280;55638;51.122;13.606;2024-01-16T01:33:53;98858.88;;;-0.26;62.03
68656;BME280;55638;51.122;13.606;2024-01-16T01:35:25;98869.28;;;-0.23;62.09
68656;BME280;55638;51.122;13.606;2024-01-16T01:36:58;98865.03;;;-0.26;62.02
68656;BME280;55638;51.122;13.606;2024-01-16T01:38:29;98864.19;;;-0.26;61.90
68656;BME280;55638;51.122;13.606;2024-01-16T01:40:02;98866.81;;;-0.26;61.85
68656;BME280;55638;51.122;13.606;2024-01-16T01:41:34;98864.19;;;-0.26;61.91
68656;BME280;55638;51.122;13.606;2024-01-16T01:43:35;98864.38;;;-0.29;61.83
68656;BME280;55638;51.122;13.606;2024-01-16T01:45:10;98870.31;;;-0.26;61.78
68656;BME280;55638;51.122;13.606;2024-01-16T01:46:42;98871.38;;;-0.28;62.00
68656;BME280;55638;51.122;13.606;2024-01-16T01:48:14;98874.94;;;-0.29;61.79
68656;BME280;55638;51.122;13.606;2024-01-16T01:49:46;98872.41;;;-0.31;62.09
68656;BME280;55638;51.122;13.606;2024-01-16T01:51:19;98870.63;;;-0.31;61.88
68656;BME280;55638;51.122;13.606;2024-01-16T01:52:51;98869.84;;;-0.33;61.97
68656;BME280;55638;51.122;13.606;2024-01-16T01:54:24;98870.72;;;-0.32;61.95
68656;BME280;55638;51.122;13.606;2024-01-16T01:56:00;98875.13;;;-0.33;61.94
68656;BME280;55638;51.122;13.606;2024-01-16T01:57:35;98876.88;;;-0.32;61.99
68656;BME280;55638;51.122;13.606;2024-01-16T01:59:07;98883.00;;;-0.31;62.11
68656;BME280;55638;51.122;13.606;2024-01-16T02:00:39;98883.00;;;-0.31;61.96
68656;BME280;55638;51.122;13.606;2024-01-16T02:02:11;98894.44;;;-0.31;61.99
68656;BME280;55638;51.122;13.606;2024-01-16T02:03:45;98890.84;;;-0.29;62.05
68656;BME280;55638;51.122;13.606;2024-01-16T02:05:17;98890.00;;;-0.30;62.06
68656;BME280;55638;51.122;13.606;2024-01-16T02:06:49;98886.38;;;-0.29;62.12
68656;BME280;55638;51.122;13.606;2024-01-16T02:08:22;98885.38;;;-0.26;62.17
68656;BME280;55638;51.122;13.606;2024-01-16T02:09:54;98894.94;;;-0.24;61.98
68656;BME280;55638;51.122;13.606;2024-01-16T02:11:26;98884.34;;;-0.24;62.17
68656;BME280;55638;51.122;13.606;2024-01-16T02:12:59;98893.13;;;-0.23;61.96
68656;BME280;55638;51.122;13.606;2024-01-16T02:14:31;98891.31;;;-0.23;62.09
68656;BME280;55638;51.122;13.606;2024-01-16T02:16:03;98893.91;;;-0.21;62.03
68656;BME280;55638;51.122;13.606;2024-01-16T02:17:37;98899.94;;;-0.19;62.15
68656;BME280;55638;51.122;13.606;2024-01-16T02:19:09;98901.72;;;-0.20;62.13
68656;BME280;55638;51.122;13.606;2024-01-16T02:20:42;98899.00;;;-0.18;61.84
68656;BME280;55638;51.122;13.606;2024-01-16T02:22:19;98909.50;;;-0.17;61.94
68656;BME280;55638;51.122;13.606;2024-01-16T02:23:53;98909.44;;;-0.15;61.90
68656;BME280;55638;51.122;13.606;2024-01-16T02:25:25;98917.38;;;-0.15;61.87
68656;BME280;55638;51.122;13.606;2024-01-16T02:26:58;98910.28;;;-0.15;61.85
68656;BME280;55638;51.122;13.606;2024-01-16T02:28:30;98925.97;;;-0.12;61.65
68656;BME280;55638;51.122;13.606;2024-01-16T02:30:02;98919.72;;;-0.11;61.84
68656;BME280;55638;51.122;13.606;2024-01-16T02:31:34;98914.34;;;-0.09;61.70
68656;BME280;55638;51.122;13.606;2024-01-16T02:33:05;98920.56;;;-0.10;61.78
68656;BME280;55638;51.122;13.606;2024-01-16T02:34:38;98923.16;;;-0.09;61.85
68656;BME280;55638;51.122;13.606;2024-01-16T02:36:10;98936.28;;;-0.07;61.87
68656;BME280;55638;51.122;13.606;2024-01-16T02:37:42;98930.06;;;-0.06;61.74
68656;BME280;55638;51.122;13.606;2024-01-16T02:39:13;98935.44;;;-0.08;61.75
68656;BME280;55638;51.122;13.606;2024-01-16T02:40:46;98930.06;;;-0.06;61.60
68656;BME280;55638;51.122;13.606;2024-01-16T02:42:18;98935.38;;;-0.06;61.70
68656;BME280;55638;51.122;13.606;2024-01-16T02:43:49;98937.06;;;-0.05;61.62
68656;BME280;55638;51.122;13.606;2024-01-16T02:45:22;98941.50;;;-0.05;61.65
68656;BME280;55638;51.122;13.606;2024-01-16T02:46:54;98941.41;;;-0.04;61.59
68656;BME280;55638;51.122;13.606;2024-01-16T02:48:26;98945.75;;;-0.03;61.33
68656;BME280;55638;51.122;13.606;2024-01-16T02:49:59;98931.66;;;-0.03;61.66
68656;BME280;55638;51.122;13.606;2024-01-16T02:51:31;98936.94;;;-0.03;61.38
68656;BME280;55638;51.122;13.606;2024-01-16T02:53:03;98932.63;;;-0.04;61.39
68656;BME280;55638;51.122;13.606;2024-01-16T02:54:35;98941.41;;;-0.04;61.55
68656;BME280;55638;51.122;13.606;2024-01-16T02:56:08;98945.00;;;-0.05;61.37
68656;BME280;55638;51.122;13.606;2024-01-16T02:57:40;98945.84;;;-0.04;61.51
68656;BME280;55638;51.122;13.606;2024-01-16T02:59:12;98950.31;;;-0.05;61.33
68656;BME280;55638;51.122;13.606;2024-01-16T03:00:44;98949.34;;;-0.04;61.50
68656;BME280;55638;51.122;13.606;2024-01-16T03:02:16;98953.81;;;-0.04;61.46
68656;BME280;55638;51.122;13.606;2024-01-16T03:03:47;98963.56;;;-0.05;61.43
68656;BME280;55638;51.122;13.606;2024-01-16T03:05:20;98948.50;;;-0.04;61.63
68656;BME280;55638;51.122;13.606;2024-01-16T03:06:52;98959.28;;;-0.08;61.23
68656;BME280;55638;51.122;13.606;2024-01-16T03:08:24;98958.25;;;-0.05;61.42
68656;BME280;55638;51.122;13.606;2024-01-16T03:09:57;98957.31;;;-0.04;61.57
68656;BME280;55638;51.122;13.606;2024-01-16T03:11:29;98962.59;;;-0.04;61.51
68656;BME280;55638;51.122;13.606;2024-01-16T03:13:04;98965.06;;;-0.01;61.58
68656;BME280;55638;51.122;13.606;2024-01-16T03:14:36;98974.81;;;-0.01;61.40
68656;BME280;55638;51.122;13.606;2024-01-16T03:16:10;98970.28;;;0.01;61.55
68656;BME280;55638;51.122;13.606;2024-01-16T03:17:42;98973.78;;;0.01;61.36
68656;BME280;55638;51.122;13.606;2024-01-16T03:19:14;98977.19;;;0.03;61.46
68656;BME280;55638;51.122;13.606;2024-01-16T03:20:46;98976.34;;;0.03;61.28
68656;BME280;55638;51.122;13.606;2024-01-16T03:22:18;98983.25;;;0.05;61.24
68656;BME280;55638;51.122;13.606;2024-01-16T03:23:50;98984.03;;;0.07;61.26
68656;BME280;55638;51.122;13.606;2024-01-16T03:25:22;98984.03;;;0.07;61.17
68656;BME280;55638;51.122;13.606;2024-01-16T03:26:54;98981.38;;;0.07;61.23
68656;BME280;55638;51.122;13.606;2024-01-16T03:28:26;98988.38;;;0.08;61.24
68656;BME280;55638;51.122;13.606;2024-01-16T03:29:58;98983.84;;;0.10;61.20
68656;BME280;55638;51.122;13.606;2024-01-16T03:31:30;98987.41;;;0.09;61.04
68656;BME280;55638;51.122;13.606;2024-01-16T03:33:02;98988.25;;;0.10;61.06
68656;BME280;55638;51.122;13.606;2024-01-16T03:34:35;99003.13;;;0.12;61.03
68656;BME280;55638;51.122;13.606;2024-01-16T03:36:07;98999.63;;;0.12;61.06
68656;BME280;55638;51.122;13.606;2024-01-16T03:37:39;98988.84;;;0.15;61.19
68656;BME280;55638;51.122;13.606;2024-01-16T03:39:11;98990.66;;;0.14;61.02
68656;BME280;55638;51.122;13.606;2024-01-16T03:40:43;99002.00;;;0.16;61.27
68656;BME280;55638;51.122;13.606;2024-01-16T03:42:15;99005.53;;;0.17;61.01
68656;BME280;55638;51.122;13.606;2024-01-16T03:43:47;99002.78;;;0.19;60.85
68656;BME280;55638;51.122;13.606;2024-01-16T03:45:19;99001.94;;;0.18;60.84
68656;BME280;55638;51.122;13.606;2024-01-16T03:46:51;99016.03;;;0.19;60.88
68656;BME280;55638;51.122;13.606;2024-01-16T03:48:23;99012.59;;;0.16;60.77
68656;BME280;55638;51.122;13.606;2024-01-16T03:49:55;99006.38;;;0.18;60.83
68656;BME280;55638;51.122;13.606;2024-01-16T03:51:27;99009.78;;;0.20;61.08
68656;BME280;55638;51.122;13.606;2024-01-16T03:52:59;99012.41;;;0.20;60.76
68656;BME280;55638;51.122;13.606;2024-01-16T03:54:31;99008.91;;;0.19;60.80
68656;BME280;55638;51.122;13.606;2024-01-16T03:56:03;99008.91;;;0.19;60.87
68656;BME280;55638;51.122;13.606;2024-01-16T03:57:35;99007.22;;;0.18;60.79
68656;BME280;55638;51.122;13.606;2024-01-16T03:59:07;99012.53;;;0.18;60.94
68656;BME280;55638;51.122;13.606;2024-01-16T04:00:39;99015.19;;;0.18;60.79
68656;BME280;55638;51.122;13.606;2024-01-16T04:02:11;99014.41;;;0.16;60.92
68656;BME280;55638;51.122;13.606;2024-01-16T04:03:43;99012.59;;;0.16;60.81
68656;BME280;55638;51.122;13.606;2024-01-16T04:05:15;99019.81;;;0.14;60.92
68656;BME280;55638;51.122;13.606;2024-01-16T04:06:47;99012.88;;;0.12;60.85
68656;BME280;55638;51.122;13.606;2024-01-16T04:08:19;99019.03;;;0.12;60.91
68656;BME280;55638;51.122;13.606;2024-01-16T04:09:51;99033.06;;;0.14;60.71
68656;BME280;55638;51.122;13.606;2024-01-16T04:11:22;99030.47;;;0.13;60.97
68656;BME280;55638;51.122;13.606;2024-01-16T04:12:54;99028.78;;;0.12;60.90
68656;BME280;55638;51.122;13.606;2024-01-16T04:14:26;99021.69;;;0.12;60.98
68656;BME280;55638;51.122;13.606;2024-01-16T04:15:58;99035.78;;;0.13;61.06
68656;BME280;55638;51.122;13.606;2024-01-16T04:17:30;99020.06;;;0.10;61.04
68656;BME280;55638;51.122;13.606;2024-01-16T04:19:02;99034.25;;;0.09;60.97
68656;BME280;55638;51.122;13.606;2024-01-16T04:20:35;99028.13;;;0.08;61.03
68656;BME280;55638;51.122;13.606;2024-01-16T04:22:07;99029.06;;;0.07;60.92
68656;BME280;55638;51.122;13.606;2024-01-16T04:23:41;99035.22;;;0.08;60.85
68656;BME280;55638;51.122;13.606;2024-01-16T04:25:14;99040.69;;;0.05;61.00
68656;BME280;55638;51.122;13.606;2024-01-16T04:26:46;99035.47;;;0.03;60.89
68656;BME280;55638;51.122;13.606;2024-01-16T04:28:18;99032.06;;;0.01;61.08
68656;BME280;55638;51.122;13.606;2024-01-16T04:29:50;99036.53;;;0.01;61.22
68656;BME280;55638;51.122;13.606;2024-01-16T04:31:22;99036.59;;;-0.01;61.03
68656;BME280;55638;51.122;13.606;2024-01-16T04:32:54;99039.25;;;-0.01;61.16
68656;BME280;55638;51.122;13.606;2024-01-16T04:34:26;99033.16;;;-0.03;61.10
68656;BME280;55638;51.122;13.606;2024-01-16T04:35:58;99026.09;;;-0.02;61.11
68656;BME280;55638;51.122;13.606;2024-01-16T04:37:30;99041.13;;;-0.03;61.02
68656;BME280;55638;51.122;13.606;2024-01-16T04:39:02;99028.81;;;-0.04;61.10
68656;BME280;55638;51.122;13.606;2024-01-16T04:40:35;99033.28;;;-0.04;61.11
68656;BME280;55638;51.122;13.606;2024-01-16T04:42:07;99033.28;;;-0.04;61.06
68656;BME280;55638;51.122;13.606;2024-01-16T04:43:39;99036.78;;;-0.04;61.19
68656;BME280;55638;51.122;13.606;2024-01-16T04:45:11;99041.13;;;-0.03;61.06
68656;BME280;55638;51.122;13.606;2024-01-16T04:46:43;99029.66;;;-0.03;61.20
68656;BME280;55638;51.122;13.606;2024-01-16T04:48:15;99038.41;;;-0.01;61.35
68656;BME280;55638;51.122;13.606;2024-01-16T04:49:47;99042.84;;;-0.02;61.28
68656;BME280;55638;51.122;13.606;2024-01-16T04:51:19;99048.16;;;-0.02;61.38
68656;BME280;55638;51.122;13.606;2024-01-16T04:52:51;99039.25;;;-0.01;61.42
68656;BME280;55638;51.122;13.606;2024-01-16T04:54:25;99045.31;;;0.01;61.12
68656;BME280;55638;51.122;13.606;2024-01-16T04:55:57;99040.94;;;0.00;61.15
68656;BME280;55638;51.122;13.606;2024-01-16T04:57:28;99050.63;;;0.01;60.89
68656;BME280;55638;51.122;13.606;2024-01-16T04:59:01;99048.63;;;0.05;61.11
68656;BME280;55638;51.122;13.606;2024-01-16T05:00:33;99056.59;;;0.05;61.19
68656;BME280;55638;51.122;13.606;2024-01-16T05:02:05;99045.03;;;0.06;61.21
68656;BME280;55638;51.122;13.606;2024-01-16T05:03:37;99051.97;;;0.08;61.08
68656;BME280;55638;51.122;13.606;2024-01-16T05:05:09;99054.59;;;0.08;61.04
68656;BME280;55638;51.122;13.606;2024-01-16T05:06:41;99061.59;;;0.09;60.92
68656;BME280;55638;51.122;13.606;2024-01-16T05:08:13;99058.03;;;0.10;61.21
68656;BME280;55638;51.122;13.606;2024-01-16T05:09:45;99056.22;;;0.11;60.85
68656;BME280;55638;51.122;13.606;2024-01-16T05:11:18;99056.91;;;0.14;61.00
68656;BME280;55638;51.122;13.606;2024-01-16T05:12:50;99069.19;;;0.15;60.97
68656;BME280;55638;51.122;13.606;2024-01-16T05:14:22;99057.66;;;0.16;60.81
68656;BME280;55638;51.122;13.606;2024-01-16T05:15:56;99066.56;;;0.15;60.82
68656;BME280;55638;51.122;13.606;2024-01-16T05:17:28;99065.53;;;0.18;60.77
68656;BME280;55638;51.122;13.606;2024-01-16T05:19:00;99066.47;;;0.17;60.51
68656;BME280;55638;51.122;13.606;2024-01-16T05:20:32;99067.31;;;0.18;60.55
68656;BME280;55638;51.122;13.606;2024-01-16T05:22:04;99068.94;;;0.20;60.59
68656;BME280;55638;51.122;13.606;2024-01-16T05:23:36;99083.03;;;0.21;60.37
68656;BME280;55638;51.122;13.606;2024-01-16T05:25:09;99070.66;;;0.21;60.05
68656;BME280;55638;51.122;13.606;2024-01-16T05:26:40;99082.09;;;0.22;60.20
68656;BME280;55638;51.122;13.606;2024-01-16T05:28:12;99080.28;;;0.22;60.07
68656;BME280;55638;51.122;13.606;2024-01-16T05:29:44;99085.53;;;0.24;60.01
68656;BME280;55638;51.122;13.606;2024-01-16T05:31:16;99096.31;;;0.21;60.16
68656;BME280;55638;51.122;13.606;2024-01-16T05:32:48;99086.44;;;0.23;60.03
68656;BME280;55638;51.122;13.606;2024-01-16T05:34:20;99086.44;;;0.23;59.94
68656;BME280;55638;51.122;13.606;2024-01-16T05:35:52;99090.81;;;0.24;60.08
68656;BME280;55638;51.122;13.606;2024-01-16T05:37:24;99089.09;;;0.23;59.93
68656;BME280;55638;51.122;13.606;2024-01-16T05:38:56;99091.75;;;0.23;59.98
68656;BME280;55638;51.122;13.606;2024-01-16T05:40:28;99085.53;;;0.24;60.16
68656;BME280;55638;51.122;13.606;2024-01-16T05:42:00;99089.88;;;0.25;60.17
68656;BME280;55638;51.122;13.606;2024-01-16T05:43:32;99089.03;;;0.24;60.18
68656;BME280;55638;51.122;13.606;2024-01-16T05:45:05;99088.91;;;0.26;59.85
68656;BME280;55638;51.122;13.606;2024-01-16T05:46:37;99092.53;;;0.25;60.08
68656;BME280;55638;51.122;13.606;2024-01-16T05:48:09;99089.03;;;0.24;60.14
68656;BME280;55638;51.122;13.606;2024-01-16T05:49:41;99094.22;;;0.26;60.02
68656;BME280;55638;51.122;13.606;2024-01-16T05:51:14;99088.06;;;0.25;60.00
68656;BME280;55638;51.122;13.606;2024-01-16T05:52:46;99089.75;;;0.26;59.95
68656;BME280;55638;51.122;13.606;2024-01-16T05:54:18;99088.91;;;0.26;59.91
68656;BME280;55638;51.122;13.606;2024-01-16T05:55:50;99099.50;;;0.26;59.83
68656;BME280;55638;51.122;13.606;2024-01-16T05:57:22;99094.03;;;0.29;59.59
68656;BME280;55638;51.122;13.606;2024-01-16T05:58:54;99100.38;;;0.26;59.69
68656;BME280;55638;51.122;13.606;2024-01-16T06:00:26;99101.31;;;0.25;59.66
68656;BME280;55638;51.122;13.606;2024-01-16T06:01:57;99103.13;;;0.25;59.77
68656;BME280;55638;51.122;13.606;2024-01-16T06:03:29;99103.97;;;0.25;59.80
68656;BME280;55638;51.122;13.606;2024-01-16T06:05:02;99107.56;;;0.24;59.66
68656;BME280;55638;51.122;13.606;2024-01-16T06:06:34;99120.72;;;0.26;59.67
68656;BME280;55638;51.122;13.606;2024-01-16T06:08:06;99122.63;;;0.24;59.90
68656;BME280;55638;51.122;13.606;2024-01-16T06:09:39;99125.16;;;0.25;59.75
68656;BME280;55638;51.122;13.606;2024-01-16T06:11:13;99119.81;;;0.27;59.77
68656;BME280;55638;51.122;13.606;2024-01-16T06:12:46;99125.16;;;0.25;59.64
68656;BME280;55638;51.122;13.606;2024-01-16T06:14:18;99132.38;;;0.23;59.63
68656;BME280;55638;51.122;13.606;2024-01-16T06:15:53;99126.19;;;0.23;59.78
68656;BME280;55638;51.122;13.606;2024-01-16T06:17:26;99124.50;;;0.22;59.82
68656;BME280;55638;51.122;13.606;2024-01-16T06:18:58;99131.66;;;0.20;59.75
68656;BME280;55638;51.122;13.606;2024-01-16T06:20:30;99127.25;;;0.20;59.77
68656;BME280;55638;51.122;13.606;2024-01-16T06:22:02;99131.78;;;0.18;59.72
68656;BME280;55638;51.122;13.606;2024-01-16T06:23:34;99135.28;;;0.19;59.83
68656;BME280;55638;51.122;13.606;2024-01-16T06:25:06;99137.25;;;0.15;59.72
68656;BME280;55638;51.122;13.606;2024-01-16T06:26:38;99141.59;;;0.16;59.64
68656;BME280;55638;51.122;13.606;2024-01-16T06:28:10;99143.50;;;0.14;59.70
68656;BME280;55638;51.122;13.606;2024-01-16T06:29:43;99140.06;;;0.12;59.91
68656;BME280;55638;51.122;13.606;2024-01-16T06:31:16;99144.53;;;0.11;59.97
68656;BME280;55638;51.122;13.606;2024-01-16T06:32:48;99151.69;;;0.09;60.09
68656;BME280;55638;51.122;13.606;2024-01-16T06:34:21;99148.19;;;0.09;59.85
68656;BME280;55638;51.122;13.606;2024-01-16T06:35:55;99153.44;;;0.10;59.64
68656;BME280;55638;51.122;13.606;2024-01-16T06:37:27;99148.28;;;0.07;59.95
68656;BME280;55638;51.122;13.606;2024-01-16T06:38:59;99138.63;;;0.06;59.99
68656;BME280;55638;51.122;13.606;2024-01-16T06:40:31;99154.44;;;0.08;59.99
68656;BME280;55638;51.122;13.606;2024-01-16T06:42:03;99159.75;;;0.08;60.04
68656;BME280;55638;51.122;13.606;2024-01-16T06:43:41;99158.97;;;0.06;60.07
68656;BME280;55638;51.122;13.606;2024-01-16T06:45:13;99168.81;;;0.04;60.07
68656;BME280;55638;51.122;13.606;2024-01-16T06:46:46;99167.19;;;0.01;60.21
68656;BME280;55638;51.122;13.606;2024-01-16T06:48:18;99175.88;;;0.03;59.98
68656;BME280;55638;51.122;13.606;2024-01-16T06:49:50;99170.69;;;0.02;59.96
68656;BME280;55638;51.122;13.606;2024-01-16T06:51:22;99174.28;;;0.01;59.92
68656;BME280;55638;51.122;13.606;2024-01-16T06:52:54;99171.69;;;-0.01;60.27
68656;BME280;55638;51.122;13.606;2024-01-16T06:54:26;99169.06;;;-0.01;59.99
68656;BME280;55638;51.122;13.606;2024-01-16T06:55:58;99174.47;;;-0.02;60.02
68656;BME280;55638;51.122;13.606;2024-01-16T06:57:30;99168.28;;;-0.03;60.23
68656;BME280;55638;51.122;13.606;2024-01-16T06:59:02;99179.06;;;-0.06;60.00
68656;BME280;55638;51.122;13.606;2024-01-16T07:00:33;99175.66;;;-0.08;60.17
68656;BME280;55638;51.122;13.606;2024-01-16T07:02:06;99180.09;;;-0.09;60.04
68656;BME280;55638;51.122;13.606;2024-01-16T07:03:38;99184.59;;;-0.11;60.03
68656;BME280;55638;51.122;13.606;2024-01-16T07:05:11;99194.25;;;-0.10;60.22
68656;BME280;55638;51.122;13.606;2024-01-16T07:06:44;99194.44;;;-0.13;60.28
68656;BME280;55638;51.122;13.606;2024-01-16T07:08:16;99187.44;;;-0.14;60.40
68656;BME280;55638;51.122;13.606;2024-01-16T07:09:48;99200.66;;;-0.14;60.40
68656;BME280;55638;51.122;13.606;2024-01-16T07:11:19;99194.63;;;-0.16;60.34
68656;BME280;55638;51.122;13.606;2024-01-16T07:12:55;99194.69;;;-0.17;60.33
68656;BME280;55638;51.122;13.606;2024-01-16T07:14:28;99205.22;;;-0.16;60.15
68656;BME280;55638;51.122;13.606;2024-01-16T07:16:00;99203.41;;;-0.15;60.43
68656;BME280;55638;51.122;13.606;2024-01-16T07:17:32;99205.22;;;-0.16;60.08
68656;BME280;55638;51.122;13.606;2024-01-16T07:19:04;99204.28;;;-0.15;60.24
68656;BME280;55638;51.122;13.606;2024-01-16T07:20:36;99206.91;;;-0.15;60.31
68656;BME280;55638;51.122;13.606;2024-01-16T07:22:08;99208.72;;;-0.15;60.12
68656;BME280;55638;51.122;13.606;2024-01-16T07:23:40;99213.91;;;-0.14;60.28
68656;BME280;55638;51.122;13.606;2024-01-16T07:25:12;99218.25;;;-0.13;60.30
68656;BME280;55638;51.122;13.606;2024-01-16T07:26:44;99211.19;;;-0.12;60.12
68656;BME280;55638;51.122;13.606;2024-01-16T07:28:16;99230.50;;;-0.10;59.92
68656;BME280;55638;51.122;13.606;2024-01-16T07:29:48;99231.34;;;-0.10;60.25
68656;BME280;55638;51.122;13.606;2024-01-16T07:31:20;99234.00;;;-0.10;59.92
68656;BME280;55638;51.122;13.606;2024-01-16T07:32:52;99238.44;;;-0.10;59.99
68656;BME280;55638;51.122;13.606;2024-01-16T07:34:25;99242.72;;;-0.08;60.06
68656;BME280;55638;51.122;13.606;2024-01-16T07:35:57;99247.06;;;-0.07;60.16
68656;BME280;55638;51.122;13.606;2024-01-16T07:37:29;99243.56;;;-0.07;59.97
68656;BME280;55638;51.122;13.606;2024-01-16T07:39:01;99246.22;;;-0.07;60.08
68656;BME280;55638;51.122;13.606;2024-01-16T07:40:33;99247.94;;;-0.06;60.00
68656;BME280;55638;51.122;13.606;2024-01-16T07:42:05;99258.34;;;-0.03;59.88
68656;BME280;55638;51.122;13.606;2024-01-16T07:43:37;99257.50;;;-0.03;59.95
68656;BME280;55638;51.122;13.606;2024-01-16T07:45:09;99262.81;;;-0.03;59.79
68656;BME280;55638;51.122;13.606;2024-01-16T07:46:41;99265.38;;;-0.02;59.66
68656;BME280;55638;51.122;13.606;2024-01-16T07:48:13;99270.69;;;-0.02;59.64
68656;BME280;55638;51.122;13.606;2024-01-16T07:49:45;99278.53;;;-0.00;59.54
68656;BME280;55638;51.122;13.606;2024-01-16T07:51:17;99274.00;;;0.02;59.58
68656;BME280;55638;51.122;13.606;2024-01-16T07:52:49;99274.97;;;0.01;59.58
68656;BME280;55638;51.122;13.606;2024-01-16T07:54:20;99275.81;;;0.01;59.65
68656;BME280;55638;51.122;13.606;2024-01-16T07:55:53;99274.78;;;0.04;59.45
68656;BME280;55638;51.122;13.606;2024-01-16T07:57:26;99280.00;;;0.05;59.84
68656;BME280;55638;51.122;13.606;2024-01-16T07:58:58;99283.50;;;0.06;59.55
68656;BME280;55638;51.122;13.606;2024-01-16T08:00:30;99284.34;;;0.06;59.49
68656;BME280;55638;51.122;13.606;2024-01-16T08:02:02;99286.09;;;0.07;59.44
68656;BME280;55638;51.122;13.606;2024-01-16T08:03:34;99287.78;;;0.08;59.53
68656;BME280;55638;51.122;13.606;2024-01-16T08:05:06;99294.72;;;0.11;59.39